Time;durP1;ratioP1;P1;durP2;ratioP2;P2;SDS_P1;SDS_P2;PMS_P1;PMS_P2;Temp;Humidity;BMP_temperature;BMP_pressure;BME280_temperature;BME280_humidity;BME280_pressure;Samples;Min_cycle;Max_cycle;Signal;HPM_P1;HPM_P2
2021/11/19 00:00:53;;;;;;;10.13;8.35;;;;;;;;;;5109101;28;20024;-52
2021/11/19 00:03:19;;;;;;;12.02;9.85;;;;;;;;;;5108897;28;20019;-54
2021/11/19 00:05:46;;;;;;;15.90;11.55;;;;;;;;;;5110405;28;20076;-53
2021/11/19 00:08:12;;;;;;;18.15;13.73;;;;;;;;;;5110301;28;20023;-54
2021/11/19 00:10:37;;;;;;;20.30;12.88;;;;;;;;;;5109327;28;20135;-53
2021/11/19 00:13:03;;;;;;;16.15;13.85;;;;;;;;;;5108718;28;20555;-54
2021/11/19 00:15:29;;;;;;;20.08;13.43;;;;;;;;;;5109792;28;20026;-52
2021/11/19 00:17:55;;;;;;;12.95;10.77;;;;;;;;;;5109166;28;20051;-53
2021/11/19 00:20:22;;;;;;;16.98;9.68;;;;;;;;;;5108425;28;20087;-51
2021/11/19 00:22:48;;;;;;;15.25;9.68;;;;;;;;;;5109640;28;20030;-53
2021/11/19 00:25:14;;;;;;;16.48;9.80;;;;;;;;;;5108980;28;20028;-53
2021/11/19 00:27:39;;;;;;;19.52;9.10;;;;;;;;;;5110017;28;20023;-54
2021/11/19 00:30:06;;;;;;;13.85;8.23;;;;;;;;;;5109700;28;20466;-53
2021/11/19 00:32:32;;;;;;;13.50;6.35;;;;;;;;;;5109093;28;20034;-54
2021/11/19 00:34:57;;;;;;;16.95;7.80;;;;;;;;;;5109328;28;20041;-55
2021/11/19 00:37:22;;;;;;;8.73;7.82;;;;;;;;;;5108616;28;20062;-53
2021/11/19 00:39:48;;;;;;;11.00;9.45;;;;;;;;;;5109328;28;20073;-52
2021/11/19 00:42:13;;;;;;;14.30;10.98;;;;;;;;;;5109138;28;20419;-52
2021/11/19 00:44:39;;;;;;;14.77;7.93;;;;;;;;;;5108649;28;20027;-55
2021/11/19 00:47:05;;;;;;;8.73;6.95;;;;;;;;;;5108667;28;20071;-52
2021/11/19 00:49:31;;;;;;;12.30;9.73;;;;;;;;;;5108934;28;20479;-52
2021/11/19 00:51:58;;;;;;;11.00;6.75;;;;;;;;;;5107746;28;20107;-53
2021/11/19 00:54:24;;;;;;;14.05;5.70;;;;;;;;;;5108877;28;20505;-53
2021/11/19 00:56:51;;;;;;;10.00;6.03;;;;;;;;;;5109646;28;20016;-55
2021/11/19 00:59:18;;;;;;;17.17;4.57;;;;;;;;;;5109550;28;20095;-50
2021/11/19 01:01:45;;;;;;;5.45;3.47;;;;;;;;;;5108737;28;20032;-53
2021/11/19 01:04:10;;;;;;;4.53;3.15;;;;;;;;;;5109002;28;20031;-53
2021/11/19 01:06:36;;;;;;;8.20;4.28;;;;;;;;;;5107958;28;20016;-54
2021/11/19 01:09:04;;;;;;;8.90;6.53;;;;;;;;;;5108715;28;20131;-53
2021/11/19 01:11:29;;;;;;;12.75;7.25;;;;;;;;;;5108037;28;20087;-48
2021/11/19 01:13:56;;;;;;;10.70;6.50;;;;;;;;;;5105874;28;20509;-48
2021/11/19 01:16:42;;;;;;;9.13;6.63;;;;;;;;;;5108768;28;20074;-47
2021/11/19 01:19:10;;;;;;;8.48;5.65;;;;;;;;;;5107850;28;20425;-53
2021/11/19 01:21:38;;;;;;;6.80;4.97;;;;;;;;;;5106537;28;20023;-53
2021/11/19 01:24:03;;;;;;;6.38;5.10;;;;;;;;;;5109220;28;20047;-51
2021/11/19 01:26:31;;;;;;;6.05;3.53;;;;;;;;;;5108356;28;20428;-50
2021/11/19 01:28:58;;;;;;;9.52;5.13;;;;;;;;;;5108559;28;20502;-52
2021/11/19 01:31:26;;;;;;;9.35;6.00;;;;;;;;;;5106178;28;20031;-52
2021/11/19 01:33:51;;;;;;;8.18;5.63;;;;;;;;;;5106869;28;20023;-53
2021/11/19 01:36:18;;;;;;;16.35;6.82;;;;;;;;;;5107751;28;20020;-52
2021/11/19 01:38:43;;;;;;;8.13;5.18;;;;;;;;;;5108240;28;20027;-55
2021/11/19 01:41:17;;;;;;;6.68;4.38;;;;;;;;;;5106163;28;20015;-54
2021/11/19 01:43:43;;;;;;;9.70;4.45;;;;;;;;;;5105941;28;20246;-54
2021/11/19 01:46:10;;;;;;;5.63;4.45;;;;;;;;;;5107518;28;20531;-55
2021/11/19 01:48:40;;;;;;;6.88;4.47;;;;;;;;;;5106604;28;20019;-55
2021/11/19 01:51:18;;;;;;;6.07;3.90;;;;;;;;;;5106312;28;20019;-55
2021/11/19 01:53:47;;;;;;;6.68;4.35;;;;;;;;;;5108384;28;20019;-54
2021/11/19 01:56:15;;;;;;;3.38;2.75;;;;;;;;;;5106638;28;20019;-54
2021/11/19 01:58:40;;;;;;;5.40;3.13;;;;;;;;;;5106955;28;20016;-54
2021/11/19 02:01:08;;;;;;;2.10;1.67;;;;;;;;;;5107790;28;20020;-54
2021/11/19 02:03:35;;;;;;;4.32;3.67;;;;;;;;;;5107431;28;20023;-49
2021/11/19 02:06:01;;;;;;;9.65;3.63;;;;;;;;;;5107143;28;20023;-51
2021/11/19 02:08:28;;;;;;;7.70;2.47;;;;;;;;;;5107142;28;20096;-48
2021/11/19 02:11:05;;;;;;;3.22;2.33;;;;;;;;;;5107007;28;20065;-51
2021/11/19 02:13:39;;;;;;;3.85;2.63;;;;;;;;;;5106858;28;20181;-45
2021/11/19 02:16:22;;;;;;;8.07;4.60;;;;;;;;;;5105539;28;20012;-50
2021/11/19 02:18:51;;;;;;;6.50;2.72;;;;;;;;;;5106399;28;20084;-47
2021/11/19 02:21:20;;;;;;;5.82;3.88;;;;;;;;;;5104444;28;20478;-48
2021/11/19 02:23:58;;;;;;;6.38;4.85;;;;;;;;;;5106771;28;20454;-48
2021/11/19 02:26:25;;;;;;;17.48;5.70;;;;;;;;;;5107147;28;20028;-49
2021/11/19 02:28:52;;;;;;;7.97;5.57;;;;;;;;;;5107050;28;20061;-49
2021/11/19 02:31:20;;;;;;;6.30;4.75;;;;;;;;;;5106305;28;20016;-44
2021/11/19 02:33:46;;;;;;;9.13;6.10;;;;;;;;;;5107546;28;20070;-46
2021/11/19 02:36:16;;;;;;;7.60;5.35;;;;;;;;;;5106253;28;20020;-47
2021/11/19 02:38:48;;;;;;;14.20;5.57;;;;;;;;;;5104625;28;20771;-50
2021/11/19 02:41:15;;;;;;;15.25;7.10;;;;;;;;;;5107137;28;20031;-47
2021/11/19 02:43:43;;;;;;;6.30;4.78;;;;;;;;;;5107560;28;20498;-47
2021/11/19 02:46:14;;;;;;;6.90;5.63;;;;;;;;;;5107591;28;20047;-50
2021/11/19 02:48:39;;;;;;;10.15;5.53;;;;;;;;;;5105088;28;20489;-50
2021/11/19 02:51:05;;;;;;;9.18;5.63;;;;;;;;;;5106145;28;20028;-50
2021/11/19 02:53:31;;;;;;;10.70;5.45;;;;;;;;;;5105760;28;20212;-46
2021/11/19 02:55:57;;;;;;;7.57;4.43;;;;;;;;;;5105550;28;20564;-48
2021/11/19 02:58:24;;;;;;;6.78;4.95;;;;;;;;;;5103068;28;20099;-45
2021/11/19 03:00:55;;;;;;;14.95;4.13;;;;;;;;;;5104866;28;20019;-47
2021/11/19 03:03:21;;;;;;;8.27;4.50;;;;;;;;;;5106541;28;20157;-47
2021/11/19 03:05:46;;;;;;;9.27;4.65;;;;;;;;;;5107159;28;20111;-46
2021/11/19 03:08:11;;;;;;;9.25;5.32;;;;;;;;;;5107052;28;20039;-47
2021/11/19 03:10:40;;;;;;;12.98;5.28;;;;;;;;;;5105503;28;20031;-49
2021/11/19 03:13:05;;;;;;;10.77;6.70;;;;;;;;;;5102744;28;20744;-48
2021/11/19 03:15:32;;;;;;;8.90;4.18;;;;;;;;;;5106532;28;20189;-48
2021/11/19 03:17:58;;;;;;;8.88;5.32;;;;;;;;;;5105800;28;20023;-47
2021/11/19 03:20:24;;;;;;;6.70;4.45;;;;;;;;;;5106390;28;20022;-52
2021/11/19 03:22:50;;;;;;;9.85;4.30;;;;;;;;;;5106964;28;20028;-52
2021/11/19 03:25:17;;;;;;;6.15;3.40;;;;;;;;;;5107212;28;20015;-47
2021/11/19 03:27:42;;;;;;;6.03;4.22;;;;;;;;;;5106100;28;20027;-51
2021/11/19 03:30:09;;;;;;;7.65;3.33;;;;;;;;;;5106466;28;20472;-51
2021/11/19 03:32:35;;;;;;;5.80;3.78;;;;;;;;;;5105112;28;20015;-51
2021/11/19 03:35:00;;;;;;;4.53;3.35;;;;;;;;;;5106483;28;20016;-49
2021/11/19 03:37:26;;;;;;;9.52;3.97;;;;;;;;;;5105166;28;20459;-51
2021/11/19 03:39:52;;;;;;;5.95;3.95;;;;;;;;;;5102215;28;20103;-49
2021/11/19 03:42:18;;;;;;;8.82;4.78;;;;;;;;;;5106869;28;20031;-52
2021/11/19 03:44:46;;;;;;;9.40;5.90;;;;;;;;;;5106819;28;20321;-50
2021/11/19 03:47:17;;;;;;;8.15;3.45;;;;;;;;;;5105353;28;20079;-50
2021/11/19 03:49:43;;;;;;;5.90;3.33;;;;;;;;;;5105430;28;20016;-48
2021/11/19 03:52:13;;;;;;;4.93;2.55;;;;;;;;;;5104592;28;20534;-52
2021/11/19 03:54:39;;;;;;;3.78;2.60;;;;;;;;;;5105827;28;20019;-53
2021/11/19 03:57:06;;;;;;;7.47;3.83;;;;;;;;;;5106562;28;20654;-49
2021/11/19 03:59:31;;;;;;;5.80;3.53;;;;;;;;;;5106005;28;20020;-51
2021/11/19 04:01:57;;;;;;;8.65;6.05;;;;;;;;;;5106322;28;20019;-51
2021/11/19 04:04:24;;;;;;;14.77;7.38;;;;;;;;;;5105974;28;20036;-47
2021/11/19 04:06:50;;;;;;;9.57;6.72;;;;;;;;;;5106088;28;20019;-47
2021/11/19 04:09:16;;;;;;;13.25;5.00;;;;;;;;;;5105781;28;20027;-52
2021/11/19 04:11:41;;;;;;;6.35;5.03;;;;;;;;;;5107944;28;20115;-50
2021/11/19 04:14:07;;;;;;;6.35;5.47;;;;;;;;;;5110127;28;20511;-51
2021/11/19 04:16:37;;;;;;;7.00;6.30;;;;;;;;;;5108666;28;20382;-47
2021/11/19 04:19:04;;;;;;;9.43;5.50;;;;;;;;;;5108072;28;20030;-51
2021/11/19 04:21:29;;;;;;;6.07;5.28;;;;;;;;;;5109432;28;20047;-48
2021/11/19 04:23:55;;;;;;;15.27;5.40;;;;;;;;;;5109227;28;20063;-50
2021/11/19 04:26:22;;;;;;;9.80;5.38;;;;;;;;;;5107349;28;20035;-50
2021/11/19 04:28:47;;;;;;;6.97;4.88;;;;;;;;;;5108744;28;20018;-52
2021/11/19 04:31:14;;;;;;;9.27;5.07;;;;;;;;;;5107126;28;20023;-49
2021/11/19 04:33:40;;;;;;;8.93;5.47;;;;;;;;;;5109559;28;20103;-51
2021/11/19 04:36:06;;;;;;;7.07;5.78;;;;;;;;;;5108431;28;20532;-51
2021/11/19 04:38:31;;;;;;;13.52;9.07;;;;;;;;;;5109443;28;20027;-46
2021/11/19 04:40:57;;;;;;;5.60;4.60;;;;;;;;;;5108994;28;20027;-48
2021/11/19 04:43:23;;;;;;;6.43;3.63;;;;;;;;;;5109506;28;20055;-50
2021/11/19 04:45:49;;;;;;;4.55;3.95;;;;;;;;;;5108727;28;20505;-52
2021/11/19 04:48:14;;;;;;;11.38;4.78;;;;;;;;;;5109027;28;20028;-51
2021/11/19 04:50:41;;;;;;;6.53;4.20;;;;;;;;;;5108859;28;20470;-49
2021/11/19 04:53:07;;;;;;;9.68;5.13;;;;;;;;;;5107788;28;20042;-47
2021/11/19 04:55:33;;;;;;;10.93;6.45;;;;;;;;;;5109212;28;20026;-48
2021/11/19 04:57:59;;;;;;;11.70;5.90;;;;;;;;;;5109475;28;20394;-50
2021/11/19 05:00:27;;;;;;;9.30;5.20;;;;;;;;;;5108945;28;20498;-51
2021/11/19 05:02:52;;;;;;;9.30;5.22;;;;;;;;;;5108714;28;20049;-51
2021/11/19 05:05:18;;;;;;;13.98;8.25;;;;;;;;;;5104913;28;20596;-49
2021/11/19 05:07:44;;;;;;;9.20;6.97;;;;;;;;;;5106579;28;20099;-48
2021/11/19 05:10:10;;;;;;;11.52;6.38;;;;;;;;;;5105806;28;20044;-47
2021/11/19 05:12:38;;;;;;;15.80;10.68;;;;;;;;;;5106983;28;20046;-49
2021/11/19 05:15:04;;;;;;;12.77;9.13;;;;;;;;;;5107093;28;20015;-53
2021/11/19 05:17:29;;;;;;;9.63;8.52;;;;;;;;;;5105575;28;20506;-49
2021/11/19 05:19:55;;;;;;;13.38;10.48;;;;;;;;;;5107190;28;20077;-48
2021/11/19 05:22:20;;;;;;;36.20;16.92;;;;;;;;;;5108445;28;20660;-48
2021/11/19 05:24:45;;;;;;;24.63;18.67;;;;;;;;;;5108339;28;20020;-47
2021/11/19 05:27:11;;;;;;;15.02;11.32;;;;;;;;;;5106759;28;20020;-51
2021/11/19 05:29:37;;;;;;;15.45;12.18;;;;;;;;;;5108203;28;20050;-46
2021/11/19 05:32:02;;;;;;;14.75;11.07;;;;;;;;;;5107364;28;20038;-48
2021/11/19 05:34:28;;;;;;;15.88;12.32;;;;;;;;;;5089033;28;20019;-49
2021/11/19 05:36:54;;;;;;;15.82;8.18;;;;;;;;;;5108404;28;20103;-52
2021/11/19 05:39:20;;;;;;;9.57;8.30;;;;;;;;;;5106639;28;20173;-44
2021/11/19 05:41:46;;;;;;;7.38;6.40;;;;;;;;;;5089666;28;20538;-50
2021/11/19 05:44:11;;;;;;;16.25;11.48;;;;;;;;;;5107459;28;20015;-49
2021/11/19 05:46:42;;;;;;;12.35;10.52;;;;;;;;;;5107586;28;20039;-44
2021/11/19 05:49:09;;;;;;;19.65;14.23;;;;;;;;;;5105502;28;20027;-48
2021/11/19 05:51:36;;;;;;;17.88;11.18;;;;;;;;;;5105007;28;20028;-49
2021/11/19 05:54:01;;;;;;;12.93;10.60;;;;;;;;;;5107590;28;20091;-51
2021/11/19 05:56:27;;;;;;;11.93;9.68;;;;;;;;;;5107340;28;20164;-50
2021/11/19 05:58:52;;;;;;;11.85;8.50;;;;;;;;;;5107879;28;20023;-46
2021/11/19 06:01:19;;;;;;;11.30;8.23;;;;;;;;;;5105977;28;20031;-47
2021/11/19 06:03:45;;;;;;;23.15;8.48;;;;;;;;;;5107827;28;20019;-49
2021/11/19 06:06:11;;;;;;;14.38;12.18;;;;;;;;;;5106908;28;20639;-51
2021/11/19 06:08:37;;;;;;;13.77;10.15;;;;;;;;;;5106958;28;20423;-50
2021/11/19 06:11:06;;;;;;;11.15;9.75;;;;;;;;;;5107869;28;20031;-50
2021/11/19 06:13:36;;;;;;;13.13;8.73;;;;;;;;;;5107530;28;20022;-49
2021/11/19 06:16:05;;;;;;;9.70;7.25;;;;;;;;;;5106335;28;20032;-47
2021/11/19 06:18:32;;;;;;;25.80;12.45;;;;;;;;;;5105971;28;20431;-47
2021/11/19 06:21:00;;;;;;;11.00;9.88;;;;;;;;;;5107314;28;20442;-51
2021/11/19 06:23:30;;;;;;;9.35;8.02;;;;;;;;;;5107109;28;20138;-50
2021/11/19 06:25:56;;;;;;;15.25;11.45;;;;;;;;;;5105363;28;20063;-49
2021/11/19 06:28:25;;;;;;;13.52;9.27;;;;;;;;;;5106648;28;20092;-48
2021/11/19 06:30:50;;;;;;;12.50;11.20;;;;;;;;;;5106282;28;20024;-50
2021/11/19 06:33:17;;;;;;;17.40;12.25;;;;;;;;;;5105274;28;20084;-49
2021/11/19 06:35:42;;;;;;;22.83;12.05;;;;;;;;;;5085860;28;20461;-50
2021/11/19 06:38:08;;;;;;;18.45;13.55;;;;;;;;;;5107530;28;20107;-49
2021/11/19 06:40:35;;;;;;;16.73;12.13;;;;;;;;;;5105534;28;20023;-51
2021/11/19 06:43:01;;;;;;;14.60;10.57;;;;;;;;;;5105899;28;20027;-47
2021/11/19 06:45:26;;;;;;;21.85;11.52;;;;;;;;;;5107026;28;20032;-47
2021/11/19 06:47:52;;;;;;;21.73;10.65;;;;;;;;;;5106802;28;20047;-51
2021/11/19 06:50:19;;;;;;;15.40;8.77;;;;;;;;;;5106811;28;20505;-46
2021/11/19 06:52:44;;;;;;;18.17;8.95;;;;;;;;;;5105914;28;20016;-47
2021/11/19 06:55:10;;;;;;;22.48;14.13;;;;;;;;;;5103596;28;20042;-45
2021/11/19 06:57:36;;;;;;;27.88;10.93;;;;;;;;;;5105120;28;20386;-48
2021/11/19 07:00:03;;;;;;;28.73;18.90;;;;;;;;;;5101858;28;20027;-49
2021/11/19 07:02:28;;;;;;;31.42;19.58;;;;;;;;;;5106450;28;20114;-50
2021/11/19 07:04:54;;;;;;;21.58;17.75;;;;;;;;;;5105296;28;20111;-48
2021/11/19 07:07:19;;;;;;;20.80;15.55;;;;;;;;;;5103281;28;20047;-50
2021/11/19 07:09:45;;;;;;;22.52;15.38;;;;;;;;;;5104701;28;20027;-46
2021/11/19 07:12:11;;;;;;;17.00;13.43;;;;;;;;;;5104961;28;20069;-51
2021/11/19 07:14:37;;;;;;;12.95;11.18;;;;;;;;;;5104772;28;20019;-49
2021/11/19 07:17:05;;;;;;;13.80;10.23;;;;;;;;;;5105319;28;20335;-51
2021/11/19 07:19:30;;;;;;;9.88;6.30;;;;;;;;;;5104855;28;20027;-53
2021/11/19 07:21:56;;;;;;;13.23;9.68;;;;;;;;;;5105734;28;20028;-53
2021/11/19 07:24:22;;;;;;;16.92;9.25;;;;;;;;;;5105284;28;20099;-57
2021/11/19 07:26:47;;;;;;;19.40;8.35;;;;;;;;;;5105233;28;20115;-57
2021/11/19 07:29:13;;;;;;;18.17;15.13;;;;;;;;;;5105807;28;20499;-56
2021/11/19 07:31:38;;;;;;;23.50;18.38;;;;;;;;;;5107015;28;20474;-56
2021/11/19 07:34:04;;;;;;;34.45;20.00;;;;;;;;;;5105162;28;20019;-57
2021/11/19 07:36:29;;;;;;;25.13;14.68;;;;;;;;;;5105790;28;20460;-57
2021/11/19 07:38:56;;;;;;;22.23;16.25;;;;;;;;;;5102631;28;20091;-57
2021/11/19 07:41:21;;;;;;;21.75;16.50;;;;;;;;;;5104948;28;20494;-55
2021/11/19 07:43:46;;;;;;;23.30;14.75;;;;;;;;;;5104454;28;20024;-58
2021/11/19 07:46:13;;;;;;;56.60;26.58;;;;;;;;;;5107702;28;20047;-54
2021/11/19 07:48:40;;;;;;;21.90;15.57;;;;;;;;;;5110297;28;20023;-56
2021/11/19 07:51:07;;;;;;;34.28;15.13;;;;;;;;;;5108956;28;20046;-57
2021/11/19 07:53:33;;;;;;;32.88;16.38;;;;;;;;;;5110649;28;20023;-57
2021/11/19 07:55:59;;;;;;;17.10;15.18;;;;;;;;;;5111094;28;20012;-53
2021/11/19 07:58:25;;;;;;;24.08;15.95;;;;;;;;;;5110534;28;20034;-56
2021/11/19 08:00:51;;;;;;;20.67;15.07;;;;;;;;;;5109402;28;20478;-55
2021/11/19 08:03:16;;;;;;;28.33;22.35;;;;;;;;;;5106219;28;20035;-55
2021/11/19 08:05:47;;;;;;;22.60;17.60;;;;;;;;;;5110264;28;20106;-54
2021/11/19 08:08:12;;;;;;;24.98;16.33;;;;;;;;;;5109467;28;20020;-54
2021/11/19 08:10:38;;;;;;;20.58;18.05;;;;;;;;;;5109609;28;20034;-55
2021/11/19 08:13:03;;;;;;;29.88;17.50;;;;;;;;;;5110536;28;20024;-55
2021/11/19 08:15:30;;;;;;;33.00;19.42;;;;;;;;;;5110288;28;20224;-55
2021/11/19 08:17:56;;;;;;;26.23;22.17;;;;;;;;;;5110159;28;20023;-52
2021/11/19 08:20:26;;;;;;;25.10;17.48;;;;;;;;;;5109466;28;20096;-57
2021/11/19 08:22:51;;;;;;;18.23;15.10;;;;;;;;;;5109798;28;20018;-57
2021/11/19 08:25:17;;;;;;;24.85;16.38;;;;;;;;;;5108425;28;20114;-55
2021/11/19 08:27:45;;;;;;;25.08;14.68;;;;;;;;;;5108807;28;20045;-57
2021/11/19 08:30:17;;;;;;;14.98;13.13;;;;;;;;;;5108881;28;20193;-63
2021/11/19 08:32:42;;;;;;;25.45;10.98;;;;;;;;;;5106282;28;20012;-58
2021/11/19 08:35:09;;;;;;;18.63;14.77;;;;;;;;;;5106747;28;20068;-58
2021/11/19 08:37:35;;;;;;;23.38;19.38;;;;;;;;;;5108490;28;20027;-63
2021/11/19 08:40:00;;;;;;;32.05;23.63;;;;;;;;;;5108322;28;20028;-65
2021/11/19 08:42:26;;;;;;;47.30;24.55;;;;;;;;;;5109834;28;20042;-59
2021/11/19 08:44:51;;;;;;;27.52;22.35;;;;;;;;;;5109097;28;20024;-59
2021/11/19 08:47:18;;;;;;;27.80;24.45;;;;;;;;;;5106025;28;20051;-52
2021/11/19 08:49:44;;;;;;;26.55;20.80;;;;;;;;;;5104151;28;20024;-50
2021/11/19 08:52:10;;;;;;;27.45;24.65;;;;;;;;;;5107296;28;20093;-57
2021/11/19 08:54:36;;;;;;;25.50;22.85;;;;;;;;;;5108600;28;20039;-54
2021/11/19 08:57:03;;;;;;;33.97;30.55;;;;;;;;;;5107369;28;20666;-57
2021/11/19 08:59:30;;;;;;;52.35;39.05;;;;;;;;;;5108226;28;20466;-54
2021/11/19 09:01:58;;;;;;;40.00;35.88;;;;;;;;;;5084337;28;20042;-57
2021/11/19 09:04:24;;;;;;;52.58;36.40;;;;;;;;;;5102544;28;20411;-57
2021/11/19 09:06:50;;;;;;;36.15;31.70;;;;;;;;;;5104587;28;20559;-55
2021/11/19 09:09:16;;;;;;;29.85;24.65;;;;;;;;;;5104203;28;20372;-56
2021/11/19 09:11:42;;;;;;;29.77;23.40;;;;;;;;;;5105083;28;20020;-54
2021/11/19 09:14:08;;;;;;;24.90;22.25;;;;;;;;;;5103779;28;20024;-50
2021/11/19 09:16:38;;;;;;;31.95;28.08;;;;;;;;;;5102172;28;20023;-50
2021/11/19 09:19:04;;;;;;;222.23;168.87;;;;;;;;;;5102373;28;20030;-51
2021/11/19 09:21:33;;;;;;;43.92;35.97;;;;;;;;;;5103236;28;20482;-52
2021/11/19 09:24:04;;;;;;;33.28;29.77;;;;;;;;;;5085083;28;20107;-55
2021/11/19 09:26:37;;;;;;;30.33;24.17;;;;;;;;;;5101958;28;20076;-49
2021/11/19 09:29:05;;;;;;;29.58;23.10;;;;;;;;;;5103800;28;20024;-53
2021/11/19 09:31:31;;;;;;;42.67;28.02;;;;;;;;;;5103473;28;20034;-56
2021/11/19 09:33:57;;;;;;;26.65;23.77;;;;;;;;;;5102445;28;20035;-58
2021/11/19 09:36:22;;;;;;;24.77;21.58;;;;;;;;;;5103768;28;20053;-57
2021/11/19 09:38:48;;;;;;;18.35;14.50;;;;;;;;;;5102828;28;20375;-56
2021/11/19 09:41:13;;;;;;;21.45;18.02;;;;;;;;;;5104935;28;20701;-54
2021/11/19 09:43:43;;;;;;;26.13;21.48;;;;;;;;;;5106702;28;21023;-57
2021/11/19 09:46:27;;;;;;;31.38;22.13;;;;;;;;;;5103734;28;20494;-55
2021/11/19 09:49:07;;;;;;;30.35;23.50;;;;;;;;;;5102273;28;20023;-56
2021/11/19 09:51:51;;;;;;;25.55;22.88;;;;;;;;;;5104073;28;20049;-56
2021/11/19 09:54:26;;;;;;;26.10;21.98;;;;;;;;;;5104259;28;20018;-51
2021/11/19 09:56:54;;;;;;;24.63;21.95;;;;;;;;;;5103415;28;20020;-56
2021/11/19 09:59:40;;;;;;;24.77;19.17;;;;;;;;;;5103266;28;20023;-55
2021/11/19 10:02:08;;;;;;;32.80;20.45;;;;;;;;;;5102180;28;20034;-52
2021/11/19 10:04:50;;;;;;;30.15;22.80;;;;;;;;;;5103372;28;20576;-50
2021/11/19 10:07:15;;;;;;;;;;;;;;;;;;5103532;28;20031;-54
2021/11/19 10:09:43;;;;;;;26.10;20.10;;;;;;;;;;5103190;28;19914;-55
2021/11/19 10:12:15;;;;;;;23.77;18.90;;;;;;;;;;5079100;28;20339;-58
2021/11/19 10:15:06;;;;;;;33.08;21.52;;;;;;;;;;5106074;28;20030;-58
2021/11/19 10:17:40;;;;;;;25.25;22.63;;;;;;;;;;5106047;28;20023;-47
2021/11/19 10:20:15;;;;;;;32.22;22.27;;;;;;;;;;5106898;28;20027;-51
2021/11/19 10:22:44;;;;;;;26.38;21.33;;;;;;;;;;5105974;28;20745;-52
2021/11/19 10:25:12;;;;;;;26.30;22.48;;;;;;;;;;5105134;28;20697;-54
2021/11/19 10:27:43;;;;;;;33.22;24.10;;;;;;;;;;5103871;28;20047;-53
2021/11/19 10:30:08;;;;;;;37.72;24.83;;;;;;;;;;5105602;28;20521;-52
2021/11/19 10:32:34;;;;;;;28.50;21.80;;;;;;;;;;5105798;28;20110;-48
2021/11/19 10:35:06;;;;;;;24.25;21.95;;;;;;;;;;5106071;28;20103;-53
2021/11/19 10:37:55;;;;;;;27.38;23.17;;;;;;;;;;5105982;28;20049;-51
2021/11/19 10:40:29;;;;;;;28.63;25.13;;;;;;;;;;5101477;28;20505;-53
2021/11/19 10:43:14;;;;;;;27.17;22.65;;;;;;;;;;5107009;28;20023;-52
2021/11/19 10:46:18;;;;;;;27.48;24.65;;;;;;;;;;5106123;28;20042;-52
2021/11/19 10:48:46;;;;;;;30.88;27.80;;;;;;;;;;5024024;28;20164;-53
2021/11/19 10:51:31;;;;;;;44.65;31.55;;;;;;;;;;5024056;28;20014;-53
2021/11/19 10:53:57;;;;;;;37.50;33.72;;;;;;;;;;5073686;28;20024;-52
2021/11/19 10:56:28;;;;;;;42.00;34.60;;;;;;;;;;5106586;28;20020;-55
2021/11/19 10:58:56;;;;;;;40.60;34.08;;;;;;;;;;5100496;28;20502;-54
2021/11/19 11:01:31;;;;;;;63.92;36.08;;;;;;;;;;5104204;28;20036;-55
2021/11/19 11:04:01;;;;;;;44.83;38.72;;;;;;;;;;5105013;28;20085;-61
2021/11/19 11:06:41;;;;;;;35.05;31.45;;;;;;;;;;5102588;28;20020;-62
2021/11/19 11:09:21;;;;;;;38.27;31.97;;;;;;;;;;5101719;28;20119;-60
2021/11/19 11:11:52;;;;;;;37.20;33.33;;;;;;;;;;5102649;28;20072;-61
2021/11/19 11:14:17;;;;;;;;;;;;;;;;;;5102679;28;20045;-61
2021/11/19 11:16:45;;;;;;;46.40;34.57;;;;;;;;;;5102264;28;20109;-61
2021/11/19 11:19:11;;;;;;;50.50;35.05;;;;;;;;;;5099035;28;20019;-60
2021/11/19 11:21:36;;;;;;;54.10;39.38;;;;;;;;;;5106860;28;20051;-61
2021/11/19 11:24:06;;;;;;;42.72;36.58;;;;;;;;;;5107333;28;20040;-61
2021/11/19 11:26:44;;;;;;;39.65;35.33;;;;;;;;;;5104835;28;20024;-61
2021/11/19 11:29:15;;;;;;;49.83;39.53;;;;;;;;;;5106010;28;20506;-62
2021/11/19 11:32:01;;;;;;;43.80;38.83;;;;;;;;;;5078012;28;20055;-60
2021/11/19 11:34:31;;;;;;;40.88;35.75;;;;;;;;;;5105327;28;20034;-60
2021/11/19 11:37:10;;;;;;;40.75;36.45;;;;;;;;;;5108193;28;20069;-61
2021/11/19 11:40:11;;;;;;;40.17;35.80;;;;;;;;;;5102182;28;20032;-60
2021/11/19 11:42:38;;;;;;;28.00;20.98;;;;;;;;;;5022587;28;20028;-61
2021/11/19 11:45:22;;;;;;;19.90;17.88;;;;;;;;;;5089223;28;20046;-61
2021/11/19 11:47:51;;;;;;;23.75;14.95;;;;;;;;;;5107569;28;20127;-61
2021/11/19 11:50:19;;;;;;;25.08;22.25;;;;;;;;;;5107646;28;20398;-62
2021/11/19 11:53:03;;;;;;;36.08;16.90;;;;;;;;;;5109168;28;20111;-61
2021/11/19 11:55:37;;;;;;;19.30;12.20;;;;;;;;;;5107174;28;20028;-61
2021/11/19 11:58:26;;;;;;;10.70;7.65;;;;;;;;;;5109185;28;20534;-62
2021/11/19 12:01:11;;;;;;;10.63;5.88;;;;;;;;;;5094131;28;20066;-62
2021/11/19 12:03:50;;;;;;;13.80;9.15;;;;;;;;;;5109476;28;20058;-62
2021/11/19 12:06:20;;;;;;;16.20;9.35;;;;;;;;;;5109262;28;20094;-61
2021/11/19 12:08:49;;;;;;;18.00;10.05;;;;;;;;;;5089540;28;20487;-61
2021/11/19 12:11:33;;;;;;;18.73;10.18;;;;;;;;;;5107736;28;20032;-61
2021/11/19 12:14:07;;;;;;;16.48;11.77;;;;;;;;;;5104312;28;20024;-60
2021/11/19 12:16:32;;;;;;;17.83;12.27;;;;;;;;;;5102175;28;20570;-61
2021/11/19 12:19:01;;;;;;;25.92;9.18;;;;;;;;;;5109993;28;20156;-61
2021/11/19 12:21:36;;;;;;;20.80;12.23;;;;;;;;;;5109330;28;20015;-61
2021/11/19 12:24:01;;;;;;;17.27;15.63;;;;;;;;;;5109198;28;20455;-61
2021/11/19 12:26:45;;;;;;;17.92;11.82;;;;;;;;;;5108660;28;20452;-61
2021/11/19 12:29:23;;;;;;;20.58;14.63;;;;;;;;;;5107085;28;20023;-60
2021/11/19 12:32:12;;;;;;;19.30;14.80;;;;;;;;;;5108211;28;20515;-60
2021/11/19 12:34:39;;;;;;;28.90;19.58;;;;;;;;;;5105541;28;20035;-60
2021/11/19 12:37:09;;;;;;;39.95;23.98;;;;;;;;;;5108847;28;20461;-60
2021/11/19 12:39:38;;;;;;;25.38;20.33;;;;;;;;;;5106228;28;20667;-60
2021/11/19 12:42:13;;;;;;;28.10;23.30;;;;;;;;;;5109331;28;20076;-56
2021/11/19 12:45:00;;;;;;;32.97;23.23;;;;;;;;;;5107301;28;20023;-59
2021/11/19 12:47:46;;;;;;;30.55;21.90;;;;;;;;;;5106333;28;20063;-60
2021/11/19 12:50:20;;;;;;;29.02;24.08;;;;;;;;;;5107280;28;20107;-60
2021/11/19 12:52:53;;;;;;;32.00;20.95;;;;;;;;;;5106006;28;20016;-56
2021/11/19 12:55:34;;;;;;;28.65;19.13;;;;;;;;;;5108184;28;20043;-56
2021/11/19 12:58:02;;;;;;;;;;;;;;;;;;5105907;28;20505;-55
2021/11/19 13:00:40;;;;;;;19.25;17.17;;;;;;;;;;5109084;28;19943;-55
2021/11/19 13:03:15;;;;;;;17.92;16.08;;;;;;;;;;5079256;28;20047;-55
2021/11/19 13:06:08;;;;;;;40.60;22.02;;;;;;;;;;5108480;28;20032;-54
2021/11/19 13:08:33;;;;;;;32.13;25.15;;;;;;;;;;5078128;28;20089;-61
2021/11/19 13:11:17;;;;;;;41.75;26.48;;;;;;;;;;5108456;28;20024;-61
2021/11/19 13:13:43;;;;;;;46.45;23.50;;;;;;;;;;5106310;28;20027;-64
2021/11/19 13:16:26;;;;;;;35.15;24.80;;;;;;;;;;5107157;28;20019;-67
2021/11/19 13:18:54;;;;;;;29.15;20.38;;;;;;;;;;5105787;28;20596;-66
2021/11/19 13:21:32;;;;;;;25.50;19.05;;;;;;;;;;5107732;28;20023;-66
2021/11/19 13:24:17;;;;;;;18.10;14.68;;;;;;;;;;5107567;28;20023;-68
2021/11/19 13:26:50;;;;;;;23.25;14.88;;;;;;;;;;5105953;28;20087;-62
2021/11/19 13:29:35;;;;;;;15.85;14.23;;;;;;;;;;5102768;28;20076;-60
2021/11/19 13:32:18;;;;;;;20.38;13.00;;;;;;;;;;5103688;28;20482;-60
2021/11/19 13:34:45;;;;;;;18.55;11.18;;;;;;;;;;5107310;28;20411;-59
2021/11/19 13:37:31;;;;;;;19.52;14.43;;;;;;;;;;5102749;28;20085;-60
2021/11/19 13:40:16;;;;;;;20.20;14.68;;;;;;;;;;5105746;28;20727;-61
2021/11/19 13:42:49;;;;;;;17.80;15.95;;;;;;;;;;5107395;28;20015;-60
2021/11/19 13:45:33;;;;;;;18.55;14.02;;;;;;;;;;5104409;28;20600;-63
2021/11/19 13:48:07;;;;;;;14.63;11.02;;;;;;;;;;5102850;28;20047;-62
2021/11/19 13:50:42;;;;;;;15.52;13.38;;;;;;;;;;5105137;28;20012;-62
2021/11/19 13:53:07;;;;;;;26.23;16.45;;;;;;;;;;5106544;28;20076;-63
2021/11/19 13:55:36;;;;;;;40.90;18.15;;;;;;;;;;5105479;28;20053;-61
2021/11/19 13:58:05;;;;;;;19.45;15.30;;;;;;;;;;5106810;28;20034;-60
2021/11/19 14:00:50;;;;;;;27.15;16.88;;;;;;;;;;5105277;28;20491;-59
2021/11/19 14:03:21;;;;;;;24.33;16.42;;;;;;;;;;5104491;28;20039;-61
2021/11/19 14:05:48;;;;;;;15.63;13.13;;;;;;;;;;5106018;28;20023;-61
2021/11/19 14:08:19;;;;;;;25.08;11.98;;;;;;;;;;5105870;28;20283;-61
2021/11/19 14:10:57;;;;;;;26.05;16.90;;;;;;;;;;5106331;28;20019;-59
2021/11/19 14:13:24;;;;;;;29.13;13.27;;;;;;;;;;5107121;28;20031;-61
2021/11/19 14:16:04;;;;;;;12.82;11.38;;;;;;;;;;5107521;28;20107;-61
2021/11/19 14:24:19;;;;;;;18.90;12.35;;;;;;;;;;5103827;28;20034;-60
2021/11/19 14:26:51;;;;;;;20.35;15.85;;;;;;;;;;5105358;28;20028;-60
2021/11/19 14:29:21;;;;;;;12.00;10.63;;;;;;;;;;5106827;28;20034;-61
2021/11/19 14:31:49;;;;;;;12.40;10.30;;;;;;;;;;5104298;28;20478;-61
2021/11/19 14:34:15;;;;;;;18.45;12.98;;;;;;;;;;5101020;28;20020;-61
2021/11/19 14:36:45;;;;;;;9.63;7.55;;;;;;;;;;5104757;28;20702;-61
2021/11/19 14:39:12;;;;;;;12.85;8.00;;;;;;;;;;5105370;28;20043;-61
2021/11/19 14:41:45;;;;;;;8.43;6.85;;;;;;;;;;5105580;28;20104;-63
2021/11/19 14:44:13;;;;;;;14.50;13.15;;;;;;;;;;5104603;28;20022;-59